sensor_id;sensor_type;location;lat;lon;timestamp;pressure;altitude;pressure_sealevel;temperature;humidity
62978;BME280;49073;42.352;23.808;2023-02-04T00:02:36;94441.97;;;2.03;70.50
62978;BME280;49073;42.352;23.808;2023-02-04T00:05:38;94436.72;;;2.03;70.91
62978;BME280;49073;42.352;23.808;2023-02-04T00:08:38;94438.00;;;2.06;71.56
62978;BME280;49073;42.352;23.808;2023-02-04T00:11:38;94432.56;;;2.02;71.69
62978;BME280;49073;42.352;23.808;2023-02-04T00:14:39;94424.50;;;1.99;71.78
62978;BME280;49073;42.352;23.808;2023-02-04T00:17:40;94419.41;;;2.02;72.03
62978;BME280;49073;42.352;23.808;2023-02-04T00:20:40;94412.13;;;1.99;72.29
62978;BME280;49073;42.352;23.808;2023-02-04T00:23:41;94406.41;;;1.97;73.00
62978;BME280;49073;42.352;23.808;2023-02-04T00:26:41;94407.03;;;1.94;73.51
62978;BME280;49073;42.352;23.808;2023-02-04T00:29:42;94396.19;;;1.87;73.95
62978;BME280;49073;42.352;23.808;2023-02-04T00:32:43;94376.25;;;1.86;74.66
62978;BME280;49073;42.352;23.808;2023-02-04T00:35:43;94391.09;;;1.91;74.51
62978;BME280;49073;42.352;23.808;2023-02-04T00:38:44;94376.56;;;1.93;74.55
62978;BME280;49073;42.352;23.808;2023-02-04T00:41:44;94360.81;;;1.93;74.80
62978;BME280;49073;42.352;23.808;2023-02-04T00:44:45;94361.44;;;1.99;74.72
62978;BME280;49073;42.352;23.808;2023-02-04T00:47:45;94362.53;;;1.98;74.41
62978;BME280;49073;42.352;23.808;2023-02-04T00:50:46;94354.31;;;1.99;73.78
62978;BME280;49073;42.352;23.808;2023-02-04T00:53:47;94346.63;;;2.03;73.86
62978;BME280;49073;42.352;23.808;2023-02-04T00:56:47;94353.41;;;2.04;73.73
62978;BME280;49073;42.352;23.808;2023-02-04T00:59:47;94357.59;;;2.05;73.57
62978;BME280;49073;42.352;23.808;2023-02-04T01:02:48;94348.91;;;2.04;73.13
62978;BME280;49073;42.352;23.808;2023-02-04T01:05:49;94333.31;;;2.08;73.68
62978;BME280;49073;42.352;23.808;2023-02-04T01:08:49;94335.19;;;2.08;73.56
62978;BME280;49073;42.352;23.808;2023-02-04T01:11:50;94329.16;;;2.07;74.06
62978;BME280;49073;42.352;23.808;2023-02-04T01:14:51;94330.38;;;2.01;73.94
62978;BME280;49073;42.352;23.808;2023-02-04T01:17:51;94316.16;;;2.02;74.16
62978;BME280;49073;42.352;23.808;2023-02-04T01:20:52;94307.81;;;2.00;74.32
62978;BME280;49073;42.352;23.808;2023-02-04T01:23:52;94297.31;;;2.00;73.85
62978;BME280;49073;42.352;23.808;2023-02-04T01:26:53;94298.84;;;2.01;74.41
62978;BME280;49073;42.352;23.808;2023-02-04T01:29:54;94303.03;;;2.02;74.34
62978;BME280;49073;42.352;23.808;2023-02-04T01:32:54;94290.97;;;2.01;74.32
62978;BME280;49073;42.352;23.808;2023-02-04T01:35:54;94296.84;;;2.07;74.26
62978;BME280;49073;42.352;23.808;2023-02-04T01:38:55;94281.69;;;2.03;74.62
62978;BME280;49073;42.352;23.808;2023-02-04T01:41:57;94282.00;;;2.02;74.66
62978;BME280;49073;42.352;23.808;2023-02-04T01:45:00;94282.94;;;2.06;74.46
62978;BME280;49073;42.352;23.808;2023-02-04T01:48:03;94281.69;;;2.03;74.84
62978;BME280;49073;42.352;23.808;2023-02-04T01:51:08;94284.19;;;2.09;74.91
62978;BME280;49073;42.352;23.808;2023-02-04T01:54:12;94275.34;;;2.04;75.26
62978;BME280;49073;42.352;23.808;2023-02-04T01:57:15;94280.31;;;2.06;75.33
62978;BME280;49073;42.352;23.808;2023-02-04T02:00:20;94282.47;;;2.04;75.41
62978;BME280;49073;42.352;23.808;2023-02-04T02:03:21;94266.69;;;2.04;75.93
62978;BME280;49073;42.352;23.808;2023-02-04T02:06:22;94269.94;;;2.01;75.83
62978;BME280;49073;42.352;23.808;2023-02-04T02:09:24;94271.31;;;1.98;75.96
62978;BME280;49073;42.352;23.808;2023-02-04T02:12:25;94264.66;;;1.92;75.89
62978;BME280;49073;42.352;23.808;2023-02-04T02:15:26;94263.75;;;1.97;75.92
62978;BME280;49073;42.352;23.808;2023-02-04T02:18:27;94268.69;;;1.98;75.67
62978;BME280;49073;42.352;23.808;2023-02-04T02:21:49;94259.91;;;2.03;75.49
62978;BME280;49073;42.352;23.808;2023-02-04T02:24:51;94259.91;;;2.03;75.41
62978;BME280;49073;42.352;23.808;2023-02-04T02:27:52;94254.63;;;2.03;75.30
62978;BME280;49073;42.352;23.808;2023-02-04T02:30:53;94246.75;;;2.03;75.43
62978;BME280;49073;42.352;23.808;2023-02-04T02:33:54;94242.25;;;2.03;74.96
62978;BME280;49073;42.352;23.808;2023-02-04T02:36:56;94227.28;;;2.04;74.93
62978;BME280;49073;42.352;23.808;2023-02-04T02:39:57;94228.03;;;2.04;74.84
62978;BME280;49073;42.352;23.808;2023-02-04T02:42:58;94247.22;;;2.05;75.19
62978;BME280;49073;42.352;23.808;2023-02-04T02:45:59;94240.72;;;2.02;75.49
62978;BME280;49073;42.352;23.808;2023-02-04T02:49:01;94232.81;;;2.02;75.69
62978;BME280;49073;42.352;23.808;2023-02-04T02:52:01;94228.66;;;2.01;75.79
62978;BME280;49073;42.352;23.808;2023-02-04T02:55:02;94216.31;;;2.02;75.20
62978;BME280;49073;42.352;23.808;2023-02-04T02:58:04;94203.47;;;2.00;75.12
62978;BME280;49073;42.352;23.808;2023-02-04T03:01:09;94208.72;;;2.00;75.17
62978;BME280;49073;42.352;23.808;2023-02-04T03:04:11;94195.72;;;1.95;74.97
62978;BME280;49073;42.352;23.808;2023-02-04T03:07:13;94204.22;;;1.92;74.92
62978;BME280;49073;42.352;23.808;2023-02-04T03:10:15;94206.84;;;1.92;75.04
62978;BME280;49073;42.352;23.808;2023-02-04T03:13:17;94190.47;;;1.95;74.34
62978;BME280;49073;42.352;23.808;2023-02-04T03:16:18;94192.97;;;1.92;74.48
62978;BME280;49073;42.352;23.808;2023-02-04T03:19:19;94182.47;;;1.92;74.14
62978;BME280;49073;42.352;23.808;2023-02-04T03:22:20;94181.50;;;1.96;73.88
62978;BME280;49073;42.352;23.808;2023-02-04T03:25:21;94168.84;;;1.98;73.56
62978;BME280;49073;42.352;23.808;2023-02-04T03:28:27;94166.06;;;1.95;73.78
62978;BME280;49073;42.352;23.808;2023-02-04T03:31:29;94173.78;;;1.91;73.37
62978;BME280;49073;42.352;23.808;2023-02-04T03:34:30;94159.09;;;1.90;73.40
62978;BME280;49073;42.352;23.808;2023-02-04T03:37:31;94165.75;;;1.96;72.69
62978;BME280;49073;42.352;23.808;2023-02-04T03:40:32;94168.06;;;1.98;72.87
62978;BME280;49073;42.352;23.808;2023-02-04T03:43:34;94164.97;;;2.04;72.21
62978;BME280;49073;42.352;23.808;2023-02-04T03:46:35;94169.13;;;2.14;71.78
62978;BME280;49073;42.352;23.808;2023-02-04T03:49:35;94170.22;;;2.22;71.53
62978;BME280;49073;42.352;23.808;2023-02-04T03:52:36;94168.16;;;2.37;70.45
62978;BME280;49073;42.352;23.808;2023-02-04T03:55:37;94168.34;;;2.40;70.62
62978;BME280;49073;42.352;23.808;2023-02-04T03:58:37;94154.84;;;2.42;70.30
62978;BME280;49073;42.352;23.808;2023-02-04T04:01:39;94151.28;;;2.46;69.95
62978;BME280;49073;42.352;23.808;2023-02-04T04:04:40;94143.22;;;2.52;69.46
62978;BME280;49073;42.352;23.808;2023-02-04T04:07:40;94147.22;;;2.58;69.16
62978;BME280;49073;42.352;23.808;2023-02-04T04:10:41;94134.53;;;2.60;68.75
62978;BME280;49073;42.352;23.808;2023-02-04T04:13:41;94122.47;;;2.59;68.49
62978;BME280;49073;42.352;23.808;2023-02-04T04:16:42;94121.22;;;2.65;68.30
62978;BME280;49073;42.352;23.808;2023-02-04T04:19:43;94125.09;;;2.68;68.63
62978;BME280;49073;42.352;23.808;2023-02-04T04:22:44;94133.72;;;2.68;68.22
62978;BME280;49073;42.352;23.808;2023-02-04T04:25:45;94123.03;;;2.73;67.88
62978;BME280;49073;42.352;23.808;2023-02-04T04:28:45;94105.25;;;2.70;67.82
62978;BME280;49073;42.352;23.808;2023-02-04T04:31:47;94104.63;;;2.73;67.74
62978;BME280;49073;42.352;23.808;2023-02-04T04:34:47;94096.72;;;2.73;67.77
62978;BME280;49073;42.352;23.808;2023-02-04T04:37:48;94107.25;;;2.73;67.62
62978;BME280;49073;42.352;23.808;2023-02-04T04:40:48;94107.25;;;2.73;67.70
62978;BME280;49073;42.352;23.808;2023-02-04T04:43:49;94092.25;;;2.74;67.68
62978;BME280;49073;42.352;23.808;2023-02-04T04:46:50;94101.94;;;2.82;67.56
62978;BME280;49073;42.352;23.808;2023-02-04T04:49:50;94112.31;;;2.79;67.88
62978;BME280;49073;42.352;23.808;2023-02-04T04:52:51;94108.94;;;2.78;67.99
62978;BME280;49073;42.352;23.808;2023-02-04T04:55:52;94112.84;;;2.72;67.91
62978;BME280;49073;42.352;23.808;2023-02-04T04:58:52;94116.84;;;2.69;68.47
62978;BME280;49073;42.352;23.808;2023-02-04T05:01:53;94116.75;;;2.66;68.98
62978;BME280;49073;42.352;23.808;2023-02-04T05:04:54;94128.66;;;2.63;69.35
62978;BME280;49073;42.352;23.808;2023-02-04T05:07:54;94126.66;;;2.60;70.02
62978;BME280;49073;42.352;23.808;2023-02-04T05:10:55;94128.66;;;2.54;70.66
62978;BME280;49073;42.352;23.808;2023-02-04T05:13:55;94128.09;;;2.49;71.53
62978;BME280;49073;42.352;23.808;2023-02-04T05:16:56;94138.91;;;2.47;71.94
62978;BME280;49073;42.352;23.808;2023-02-04T05:19:57;94146.34;;;2.45;72.37
62978;BME280;49073;42.352;23.808;2023-02-04T05:22:58;94142.94;;;2.44;72.83
62978;BME280;49073;42.352;23.808;2023-02-04T05:26:01;94134.28;;;2.44;73.45
62978;BME280;49073;42.352;23.808;2023-02-04T05:29:02;94133.53;;;2.43;73.88
62978;BME280;49073;42.352;23.808;2023-02-04T05:32:03;94137.06;;;2.47;73.90
62978;BME280;49073;42.352;23.808;2023-02-04T05:35:04;94150.66;;;2.50;74.04
62978;BME280;49073;42.352;23.808;2023-02-04T05:38:05;94150.84;;;2.44;74.61
62978;BME280;49073;42.352;23.808;2023-02-04T05:41:05;94146.38;;;2.36;75.62
62978;BME280;49073;42.352;23.808;2023-02-04T05:44:06;94141.88;;;2.28;77.27
62978;BME280;49073;42.352;23.808;2023-02-04T05:47:07;94142.69;;;2.20;78.70
62978;BME280;49073;42.352;23.808;2023-02-04T05:50:07;94154.28;;;2.18;79.12
62978;BME280;49073;42.352;23.808;2023-02-04T05:53:09;94163.88;;;2.14;79.41
62978;BME280;49073;42.352;23.808;2023-02-04T05:56:09;94171.00;;;2.14;80.56
62978;BME280;49073;42.352;23.808;2023-02-04T05:59:10;94175.19;;;2.06;81.92
62978;BME280;49073;42.352;23.808;2023-02-04T06:02:10;94180.59;;;2.01;83.07
62978;BME280;49073;42.352;23.808;2023-02-04T06:05:11;94185.38;;;1.99;84.90
62978;BME280;49073;42.352;23.808;2023-02-04T06:08:13;94198.84;;;1.88;86.45
62978;BME280;49073;42.352;23.808;2023-02-04T06:11:15;94203.31;;;1.88;86.81
62978;BME280;49073;42.352;23.808;2023-02-04T06:14:15;94201.94;;;1.91;86.97
62978;BME280;49073;42.352;23.808;2023-02-04T06:17:16;94204.09;;;1.88;87.31
62978;BME280;49073;42.352;23.808;2023-02-04T06:20:17;94206.09;;;1.92;87.03
62978;BME280;49073;42.352;23.808;2023-02-04T06:23:17;94201.59;;;1.92;86.19
62978;BME280;49073;42.352;23.808;2023-02-04T06:26:19;94200.84;;;1.92;85.91
62978;BME280;49073;42.352;23.808;2023-02-04T06:29:20;94211.81;;;1.94;85.49
62978;BME280;49073;42.352;23.808;2023-02-04T06:32:21;94211.66;;;1.99;84.70
62978;BME280;49073;42.352;23.808;2023-02-04T06:35:21;94218.78;;;2.07;83.70
62978;BME280;49073;42.352;23.808;2023-02-04T06:38:22;94228.03;;;2.13;82.33
62978;BME280;49073;42.352;23.808;2023-02-04T06:41:23;94237.94;;;2.16;82.22
62978;BME280;49073;42.352;23.808;2023-02-04T06:44:24;94233.31;;;2.13;81.51
62978;BME280;49073;42.352;23.808;2023-02-04T06:47:24;94227.91;;;2.10;81.95
62978;BME280;49073;42.352;23.808;2023-02-04T06:50:25;94237.16;;;1.98;83.17
62978;BME280;49073;42.352;23.808;2023-02-04T06:53:26;94227.72;;;1.97;84.08
62978;BME280;49073;42.352;23.808;2023-02-04T06:56:26;94222.78;;;1.87;85.24
62978;BME280;49073;42.352;23.808;2023-02-04T06:59:29;94226.78;;;1.67;87.66
62978;BME280;49073;42.352;23.808;2023-02-04T07:02:32;94226.16;;;1.70;88.56
62978;BME280;49073;42.352;23.808;2023-02-04T07:05:33;94225.53;;;1.73;88.76
62978;BME280;49073;42.352;23.808;2023-02-04T07:08:34;94232.50;;;1.78;88.73
62978;BME280;49073;42.352;23.808;2023-02-04T07:11:34;94235.63;;;1.88;87.61
62978;BME280;49073;42.352;23.808;2023-02-04T07:14:35;94227.75;;;1.88;86.60
62978;BME280;49073;42.352;23.808;2023-02-04T07:17:36;94230.22;;;1.94;86.24
62978;BME280;49073;42.352;23.808;2023-02-04T07:20:37;94221.09;;;2.00;85.32
62978;BME280;49073;42.352;23.808;2023-02-04T07:23:39;94216.91;;;2.16;83.09
62978;BME280;49073;42.352;23.808;2023-02-04T07:26:39;94223.56;;;2.23;82.65
62978;BME280;49073;42.352;23.808;2023-02-04T07:29:40;94222.16;;;2.16;80.92
62978;BME280;49073;42.352;23.808;2023-02-04T07:32:41;94213.81;;;2.23;79.88
62978;BME280;49073;42.352;23.808;2023-02-04T07:35:42;94212.75;;;2.24;78.89
62978;BME280;49073;42.352;23.808;2023-02-04T07:38:43;94218.59;;;2.30;78.14
62978;BME280;49073;42.352;23.808;2023-02-04T07:41:44;94209.16;;;2.46;78.09
62978;BME280;49073;42.352;23.808;2023-02-04T07:44:45;94191.88;;;2.84;77.71
62978;BME280;49073;42.352;23.808;2023-02-04T07:47:46;94197.03;;;3.11;75.07
62978;BME280;49073;42.352;23.808;2023-02-04T07:50:46;94184.69;;;3.32;73.97
62978;BME280;49073;42.352;23.808;2023-02-04T07:53:47;94184.25;;;3.22;71.46
62978;BME280;49073;42.352;23.808;2023-02-04T07:56:48;94173.91;;;3.46;72.58
62978;BME280;49073;42.352;23.808;2023-02-04T07:59:49;94171.72;;;3.48;69.80
62978;BME280;49073;42.352;23.808;2023-02-04T08:02:49;94167.66;;;3.51;68.42
62978;BME280;49073;42.352;23.808;2023-02-04T08:05:50;94162.16;;;3.65;67.51
62978;BME280;49073;42.352;23.808;2023-02-04T08:08:51;94156.84;;;3.74;67.01
62978;BME280;49073;42.352;23.808;2023-02-04T08:11:52;94141.66;;;3.92;66.18
62978;BME280;49073;42.352;23.808;2023-02-04T08:14:52;94154.09;;;4.04;66.56
62978;BME280;49073;42.352;23.808;2023-02-04T08:17:53;94145.44;;;3.82;65.05
62978;BME280;49073;42.352;23.808;2023-02-04T08:20:54;94142.38;;;3.80;64.96
62978;BME280;49073;42.352;23.808;2023-02-04T08:23:55;94141.59;;;3.79;64.24
62978;BME280;49073;42.352;23.808;2023-02-04T08:26:56;94135.09;;;3.98;63.76
62978;BME280;49073;42.352;23.808;2023-02-04T08:29:58;94141.47;;;4.31;63.30
62978;BME280;49073;42.352;23.808;2023-02-04T08:32:59;94135.03;;;4.65;62.29
62978;BME280;49073;42.352;23.808;2023-02-04T08:36:00;94134.28;;;4.90;61.46
62978;BME280;49073;42.352;23.808;2023-02-04T08:39:01;94125.72;;;4.93;61.47
62978;BME280;49073;42.352;23.808;2023-02-04T08:42:01;94142.09;;;5.11;59.62
62978;BME280;49073;42.352;23.808;2023-02-04T08:45:02;94139.75;;;5.22;60.14
62978;BME280;49073;42.352;23.808;2023-02-04T08:48:03;94134.63;;;5.13;59.35
62978;BME280;49073;42.352;23.808;2023-02-04T08:51:04;94142.97;;;5.15;58.43
62978;BME280;49073;42.352;23.808;2023-02-04T08:54:05;94143.72;;;5.28;58.82
62978;BME280;49073;42.352;23.808;2023-02-04T08:57:06;94155.06;;;5.41;57.87
62978;BME280;49073;42.352;23.808;2023-02-04T09:00:08;94150.69;;;5.20;56.67
62978;BME280;49073;42.352;23.808;2023-02-04T09:03:10;94139.13;;;5.13;57.29
62978;BME280;49073;42.352;23.808;2023-02-04T09:06:11;94153.00;;;5.09;58.13
62978;BME280;49073;42.352;23.808;2023-02-04T09:09:13;94143.50;;;5.46;58.10
62978;BME280;49073;42.352;23.808;2023-02-04T09:12:13;94138.31;;;5.49;57.03
62978;BME280;49073;42.352;23.808;2023-02-04T09:15:14;94137.22;;;5.38;56.47
62978;BME280;49073;42.352;23.808;2023-02-04T09:18:15;94148.75;;;5.58;56.71
62978;BME280;49073;42.352;23.808;2023-02-04T09:21:18;94126.56;;;5.34;55.98
62978;BME280;49073;42.352;23.808;2023-02-04T09:24:19;94132.81;;;5.42;56.21
62978;BME280;49073;42.352;23.808;2023-02-04T09:27:23;94128.78;;;5.32;55.69
62978;BME280;49073;42.352;23.808;2023-02-04T09:30:24;94133.91;;;5.41;55.56
62978;BME280;49073;42.352;23.808;2023-02-04T09:33:24;94134.13;;;5.61;55.44
62978;BME280;49073;42.352;23.808;2023-02-04T09:36:25;94143.69;;;5.53;55.23
62978;BME280;49073;42.352;23.808;2023-02-04T09:39:28;94128.28;;;5.55;55.32
62978;BME280;49073;42.352;23.808;2023-02-04T09:42:31;94124.09;;;5.54;55.58
62978;BME280;49073;42.352;23.808;2023-02-04T09:45:33;94124.78;;;5.38;56.01
62978;BME280;49073;42.352;23.808;2023-02-04T09:48:35;94118.84;;;5.29;56.35
62978;BME280;49073;42.352;23.808;2023-02-04T09:51:37;94128.31;;;5.43;57.26
62978;BME280;49073;42.352;23.808;2023-02-04T09:54:38;94113.16;;;5.15;57.62
62978;BME280;49073;42.352;23.808;2023-02-04T09:57:39;94115.34;;;5.13;59.08
62978;BME280;49073;42.352;23.808;2023-02-04T10:00:40;94110.09;;;5.00;59.83
62978;BME280;49073;42.352;23.808;2023-02-04T10:03:43;94104.59;;;4.93;60.88
62978;BME280;49073;42.352;23.808;2023-02-04T10:06:47;94119.88;;;4.75;61.49
62978;BME280;49073;42.352;23.808;2023-02-04T10:09:48;94114.03;;;4.69;62.98
62978;BME280;49073;42.352;23.808;2023-02-04T10:12:54;94110.72;;;4.60;64.33
62978;BME280;49073;42.352;23.808;2023-02-04T10:15:57;94114.66;;;4.41;64.53
62978;BME280;49073;42.352;23.808;2023-02-04T10:19:02;94110.13;;;4.29;66.01
62978;BME280;49073;42.352;23.808;2023-02-04T10:22:11;94099.06;;;4.48;66.26
62978;BME280;49073;42.352;23.808;2023-02-04T10:25:17;94112.03;;;4.66;66.59
62978;BME280;49073;42.352;23.808;2023-02-04T10:28:18;94097.66;;;4.51;66.04
62978;BME280;49073;42.352;23.808;2023-02-04T10:31:28;94096.75;;;4.47;66.28
62978;BME280;49073;42.352;23.808;2023-02-04T10:34:34;94098.31;;;4.48;66.12
62978;BME280;49073;42.352;23.808;2023-02-04T10:37:39;94101.69;;;4.36;66.95
62978;BME280;49073;42.352;23.808;2023-02-04T10:40:40;94102.75;;;4.22;67.02
62978;BME280;49073;42.352;23.808;2023-02-04T10:43:42;94101.66;;;4.24;67.76
62978;BME280;49073;42.352;23.808;2023-02-04T10:46:42;94091.16;;;4.02;71.04
62978;BME280;49073;42.352;23.808;2023-02-04T10:49:56;94097.16;;;3.90;72.88
62978;BME280;49073;42.352;23.808;2023-02-04T10:52:59;94090.78;;;3.91;75.08
62978;BME280;49073;42.352;23.808;2023-02-04T10:56:20;94092.69;;;3.70;76.72
62978;BME280;49073;42.352;23.808;2023-02-04T10:59:23;94077.78;;;3.74;77.78
62978;BME280;49073;42.352;23.808;2023-02-04T11:02:44;94067.19;;;3.61;78.62
62978;BME280;49073;42.352;23.808;2023-02-04T11:05:48;94089.09;;;3.53;80.59
62978;BME280;49073;42.352;23.808;2023-02-04T11:08:49;94081.09;;;3.49;81.14
62978;BME280;49073;42.352;23.808;2023-02-04T11:11:52;94071.81;;;3.64;82.88
62978;BME280;49073;42.352;23.808;2023-02-04T11:14:54;94069.84;;;3.61;82.01
62978;BME280;49073;42.352;23.808;2023-02-04T11:18:04;94066.31;;;3.57;83.00
62978;BME280;49073;42.352;23.808;2023-02-04T11:24:34;94072.03;;;3.59;84.14
62978;BME280;49073;42.352;23.808;2023-02-04T11:27:41;94065.88;;;3.55;84.76
62978;BME280;49073;42.352;23.808;2023-02-04T11:30:42;94074.91;;;3.45;84.57
62978;BME280;49073;42.352;23.808;2023-02-04T11:33:43;94066.31;;;3.57;86.36
62978;BME280;49073;42.352;23.808;2023-02-04T11:37:12;94066.13;;;3.41;86.61
62978;BME280;49073;42.352;23.808;2023-02-04T11:40:18;94072.88;;;3.30;87.44
62978;BME280;49073;42.352;23.808;2023-02-04T11:43:19;94074.41;;;3.31;90.24
62978;BME280;49073;42.352;23.808;2023-02-04T11:46:20;94071.38;;;3.20;93.02
62978;BME280;49073;42.352;23.808;2023-02-04T11:49:24;94063.69;;;3.15;93.31
62978;BME280;49073;42.352;23.808;2023-02-04T11:52:25;94061.09;;;3.06;94.87
62978;BME280;49073;42.352;23.808;2023-02-04T11:55:26;94046.97;;;3.11;95.01
62978;BME280;49073;42.352;23.808;2023-02-04T11:58:29;94045.25;;;3.15;95.42
62978;BME280;49073;42.352;23.808;2023-02-04T12:01:31;94040.03;;;3.06;94.99
62978;BME280;49073;42.352;23.808;2023-02-04T12:04:32;94042.09;;;3.22;96.05
62978;BME280;49073;42.352;23.808;2023-02-04T12:07:33;94036.97;;;3.25;96.77
62978;BME280;49073;42.352;23.808;2023-02-04T12:10:34;94030.59;;;3.26;95.73
62978;BME280;49073;42.352;23.808;2023-02-04T12:13:48;94023.16;;;3.28;95.85
62978;BME280;49073;42.352;23.808;2023-02-04T12:16:50;94022.06;;;3.29;94.98
62978;BME280;49073;42.352;23.808;2023-02-04T12:19:55;94021.47;;;3.24;93.97
62978;BME280;49073;42.352;23.808;2023-02-04T12:22:56;94027.53;;;3.24;95.48
62978;BME280;49073;42.352;23.808;2023-02-04T12:25:59;94025.13;;;3.31;95.93
62978;BME280;49073;42.352;23.808;2023-02-04T12:28:59;94023.22;;;3.19;94.94
62978;BME280;49073;42.352;23.808;2023-02-04T12:32:02;94022.25;;;3.24;96.35
62978;BME280;49073;42.352;23.808;2023-02-04T12:35:03;94027.22;;;3.26;96.02
62978;BME280;49073;42.352;23.808;2023-02-04T12:38:05;94031.19;;;3.11;95.55
62978;BME280;49073;42.352;23.808;2023-02-04T12:41:06;94030.28;;;3.28;96.00
62978;BME280;49073;42.352;23.808;2023-02-04T12:44:06;94032.38;;;3.34;96.40
62978;BME280;49073;42.352;23.808;2023-02-04T12:47:07;94034.56;;;3.32;95.34
62978;BME280;49073;42.352;23.808;2023-02-04T12:50:09;94041.06;;;3.35;95.67
62978;BME280;49073;42.352;23.808;2023-02-04T12:53:10;94043.13;;;3.29;95.47
62978;BME280;49073;42.352;23.808;2023-02-04T12:56:11;94038.34;;;3.23;95.41
62978;BME280;49073;42.352;23.808;2023-02-04T12:59:11;94049.63;;;3.11;94.96
62978;BME280;49073;42.352;23.808;2023-02-04T13:02:12;94046.34;;;3.14;96.29
62978;BME280;49073;42.352;23.808;2023-02-04T13:05:14;94046.09;;;3.07;95.84
62978;BME280;49073;42.352;23.808;2023-02-04T13:08:15;94045.50;;;3.01;96.16
62978;BME280;49073;42.352;23.808;2023-02-04T13:11:15;94048.75;;;2.98;96.68
62978;BME280;49073;42.352;23.808;2023-02-04T13:14:16;94048.47;;;2.99;96.88
62978;BME280;49073;42.352;23.808;2023-02-04T13:17:17;94057.25;;;3.03;96.81
62978;BME280;49073;42.352;23.808;2023-02-04T13:20:18;94048.00;;;2.97;97.82
62978;BME280;49073;42.352;23.808;2023-02-04T13:23:18;94056.84;;;2.93;98.56
62978;BME280;49073;42.352;23.808;2023-02-04T13:26:19;94045.38;;;2.97;99.46
62978;BME280;49073;42.352;23.808;2023-02-04T13:29:20;94045.09;;;2.90;98.96
62978;BME280;49073;42.352;23.808;2023-02-04T13:32:21;94043.91;;;2.79;99.55
62978;BME280;49073;42.352;23.808;2023-02-04T13:35:22;94045.09;;;2.60;99.65
62978;BME280;49073;42.352;23.808;2023-02-04T13:38:22;94049.47;;;2.56;100.00
62978;BME280;49073;42.352;23.808;2023-02-04T13:41:26;94043.31;;;2.52;100.00
62978;BME280;49073;42.352;23.808;2023-02-04T13:44:27;94045.84;;;2.39;100.00
62978;BME280;49073;42.352;23.808;2023-02-04T13:47:28;94046.84;;;2.56;100.00
62978;BME280;49073;42.352;23.808;2023-02-04T13:50:28;94040.34;;;2.53;100.00
62978;BME280;49073;42.352;23.808;2023-02-04T13:53:29;94043.59;;;2.50;100.00
62978;BME280;49073;42.352;23.808;2023-02-04T13:56:30;94023.19;;;2.47;100.00
62978;BME280;49073;42.352;23.808;2023-02-04T13:59:32;94029.44;;;2.42;100.00
62978;BME280;49073;42.352;23.808;2023-02-04T14:02:32;94031.25;;;2.51;100.00
62978;BME280;49073;42.352;23.808;2023-02-04T14:05:33;94042.47;;;2.60;100.00
62978;BME280;49073;42.352;23.808;2023-02-04T14:08:34;94043.88;;;2.57;100.00
62978;BME280;49073;42.352;23.808;2023-02-04T14:11:36;94054.09;;;2.59;100.00
62978;BME280;49073;42.352;23.808;2023-02-04T14:14:39;94053.31;;;2.58;100.00
62978;BME280;49073;42.352;23.808;2023-02-04T14:17:42;94060.44;;;2.58;100.00
62978;BME280;49073;42.352;23.808;2023-02-04T14:20:43;94064.00;;;2.53;100.00
62978;BME280;49073;42.352;23.808;2023-02-04T14:23:43;94069.16;;;2.50;100.00
62978;BME280;49073;42.352;23.808;2023-02-04T14:26:44;94062.53;;;2.43;100.00
62978;BME280;49073;42.352;23.808;2023-02-04T14:29:45;94066.41;;;2.37;100.00
62978;BME280;49073;42.352;23.808;2023-02-04T14:32:46;94063.44;;;2.39;100.00
62978;BME280;49073;42.352;23.808;2023-02-04T14:35:50;94069.81;;;2.38;100.00
62978;BME280;49073;42.352;23.808;2023-02-04T14:38:52;94073.34;;;2.42;100.00
62978;BME280;49073;42.352;23.808;2023-02-04T14:41:56;94075.69;;;2.35;100.00
62978;BME280;49073;42.352;23.808;2023-02-04T14:44:57;94081.59;;;2.31;100.00
62978;BME280;49073;42.352;23.808;2023-02-04T14:47:57;94089.00;;;2.38;100.00
62978;BME280;49073;42.352;23.808;2023-02-04T14:51:00;94089.59;;;2.35;99.85
62978;BME280;49073;42.352;23.808;2023-02-04T14:54:04;94091.19;;;2.27;99.95
62978;BME280;49073;42.352;23.808;2023-02-04T14:57:04;94090.28;;;2.23;100.00
62978;BME280;49073;42.352;23.808;2023-02-04T15:00:05;94098.91;;;2.24;100.00
62978;BME280;49073;42.352;23.808;2023-02-04T15:03:06;94096.91;;;2.21;100.00
62978;BME280;49073;42.352;23.808;2023-02-04T15:06:07;94099.59;;;2.12;100.00
62978;BME280;49073;42.352;23.808;2023-02-04T15:09:07;94100.50;;;2.07;100.00
62978;BME280;49073;42.352;23.808;2023-02-04T15:12:08;94109.75;;;2.13;100.00
62978;BME280;49073;42.352;23.808;2023-02-04T15:15:09;94112.25;;;2.10;100.00
62978;BME280;49073;42.352;23.808;2023-02-04T15:18:10;94101.88;;;2.04;100.00
62978;BME280;49073;42.352;23.808;2023-02-04T15:21:11;94107.63;;;2.07;100.00
62978;BME280;49073;42.352;23.808;2023-02-04T15:24:12;94113.81;;;2.02;100.00
62978;BME280;49073;42.352;23.808;2023-02-04T15:27:13;94122.78;;;2.10;100.00
62978;BME280;49073;42.352;23.808;2023-02-04T15:30:14;94131.28;;;2.07;99.58
62978;BME280;49073;42.352;23.808;2023-02-04T15:33:15;94117.38;;;1.97;97.40
62978;BME280;49073;42.352;23.808;2023-02-04T15:36:16;94131.13;;;1.94;95.85
62978;BME280;49073;42.352;23.808;2023-02-04T15:39:16;94139.34;;;1.93;92.90
62978;BME280;49073;42.352;23.808;2023-02-04T15:42:18;94149.84;;;1.93;90.55
62978;BME280;49073;42.352;23.808;2023-02-04T15:45:18;94158.47;;;1.93;89.77
62978;BME280;49073;42.352;23.808;2023-02-04T15:48:19;94162.53;;;1.91;88.97
62978;BME280;49073;42.352;23.808;2023-02-04T15:51:20;94169.31;;;1.83;87.67
62978;BME280;49073;42.352;23.808;2023-02-04T15:54:21;94172.09;;;1.78;86.88
62978;BME280;49073;42.352;23.808;2023-02-04T15:57:21;94172.72;;;1.83;86.47
62978;BME280;49073;42.352;23.808;2023-02-04T16:00:22;94179.22;;;1.77;86.51
62978;BME280;49073;42.352;23.808;2023-02-04T16:03:23;94183.38;;;1.78;84.61
62978;BME280;49073;42.352;23.808;2023-02-04T16:06:24;94180.44;;;1.71;83.91